Time;durP1;ratioP1;P1;durP2;ratioP2;P2;SDS_P1;SDS_P2;PMS_P1;PMS_P2;Temp;Humidity;BMP_temperature;BMP_pressure;BME280_temperature;BME280_humidity;BME280_pressure;Samples;Min_cycle;Max_cycle;Signal;HPM_P1;HPM_P2
2023/07/02 00:02:21;;;;;;;35.15;17.02;;;17.10;95.50;;;;;;5076379;28;20176;-66
2023/07/02 00:04:47;;;;;;;29.13;16.77;;;17.00;96.30;;;;;;5076085;28;20647;-66
2023/07/02 00:07:14;;;;;;;32.60;16.17;;;17.00;99.50;;;;;;5076303;28;20172;-67
2023/07/02 00:09:40;;;;;;;23.47;17.03;;;16.90;99.90;;;;;;5058414;28;20242;-67
2023/07/02 00:12:06;;;;;;;33.87;17.37;;;17.00;99.90;;;;;;5058161;28;20184;-67
2023/07/02 00:14:32;;;;;;;30.93;17.23;;;17.00;98.30;;;;;;5075979;28;20185;-66
2023/07/02 00:16:58;;;;;;;28.50;17.60;;;17.00;99.40;;;;;;5076241;28;20173;-66
2023/07/02 00:19:24;;;;;;;32.67;18.03;;;17.00;99.90;;;;;;5075570;28;20705;-66
2023/07/02 00:21:50;;;;;;;31.60;18.13;;;16.90;98.80;;;;;;5075940;28;20169;-67
2023/07/02 00:24:15;;;;;;;32.30;17.83;;;16.90;99.90;;;;;;5075821;28;20180;-68
2023/07/02 00:26:42;;;;;;;33.47;18.60;;;16.90;99.90;;;;;;5076026;28;20207;-67
2023/07/02 00:29:09;;;;;;;31.47;17.93;;;16.90;99.90;;;;;;5075735;28;20261;-65
2023/07/02 00:31:35;;;;;;;35.60;18.53;;;16.80;99.90;;;;;;5076016;28;20251;-66
2023/07/02 00:34:01;;;;;;;29.30;17.63;;;16.80;99.90;;;;;;5075461;28;20196;-68
2023/07/02 00:36:27;;;;;;;32.17;17.90;;;16.90;99.90;;;;;;5075870;28;20164;-67
2023/07/02 00:38:53;;;;;;;36.00;19.53;;;16.90;99.90;;;;;;5075220;28;20559;-67
2023/07/02 00:41:18;;;;;;;28.70;19.30;;;17.00;99.90;;;;;;5075670;28;20222;-66
2023/07/02 00:43:44;;;;;;;34.23;19.60;;;16.90;99.90;;;;;;5075427;28;20208;-68
2023/07/02 00:46:19;;;;;;;35.53;19.73;;;16.90;99.90;;;;;;5075488;28;20620;-66
2023/07/02 00:48:50;;;;;;;35.83;19.87;;;16.90;99.90;;;;;;5075505;28;20215;-66
2023/07/02 00:51:19;;;;;;;33.30;19.93;;;16.90;99.90;;;;;;5075414;28;20168;-66
2023/07/02 00:53:46;;;;;;;33.63;20.13;;;16.90;99.90;;;;;;5075589;28;20247;-66
2023/07/02 00:56:11;;;;;;;34.80;18.97;;;16.90;99.90;;;;;;5075454;28;20161;-67
2023/07/02 00:58:48;;;;;;;38.03;20.03;;;16.80;99.90;;;;;;5075325;28;20222;-66
2023/07/02 01:01:17;;;;;;;34.70;20.13;;;16.80;99.90;;;;;;5073967;28;20256;-66
2023/07/02 01:04:02;;;;;;;36.10;21.13;;;16.80;99.90;;;;;;5075098;28;20176;-66
2023/07/02 01:06:32;;;;;;;35.77;20.17;;;16.80;99.90;;;;;;5075219;28;20179;-66
2023/07/02 01:09:00;;;;;;;36.83;20.40;;;16.80;99.90;;;;;;5075174;28;20207;-66
2023/07/02 01:11:35;;;;;;;37.22;19.92;;;16.90;99.90;;;;;;5075050;28;20252;-66
2023/07/02 01:14:05;;;;;;;38.93;20.87;;;16.90;99.90;;;;;;5074936;28;20172;-66
2023/07/02 01:16:32;;;;;;;32.93;19.37;;;16.80;99.90;;;;;;5074642;28;20172;-66
2023/07/02 01:19:03;;;;;;;41.13;20.75;;;16.80;99.90;;;;;;5075180;28;20229;-67
2023/07/02 01:21:31;;;;;;;36.43;21.97;;;16.90;99.90;;;;;;5056832;28;20197;-67
2023/07/02 01:23:58;;;;;;;35.77;21.20;;;16.90;99.90;;;;;;5074668;28;20164;-66
2023/07/02 01:26:24;;;;;;;33.08;21.02;;;17.00;99.90;;;;;;5074806;28;20196;-66
2023/07/02 01:28:50;;;;;;;37.42;21.08;;;17.10;99.90;;;;;;5074603;28;20258;-66
2023/07/02 01:31:16;;;;;;;42.80;21.73;;;17.00;99.90;;;;;;5074286;28;20507;-65
2023/07/02 01:33:42;;;;;;;39.85;21.38;;;17.00;99.90;;;;;;5074617;28;20256;-66
2023/07/02 01:36:07;;;;;;;35.77;21.50;;;17.00;99.90;;;;;;5074629;28;20164;-67
2023/07/02 01:38:33;;;;;;;35.63;21.50;;;17.00;99.90;;;;;;5074248;28;20216;-67
2023/07/02 01:40:59;;;;;;;35.47;20.25;;;16.90;99.90;;;;;;5074407;28;20180;-67
2023/07/02 01:43:24;;;;;;;37.75;21.73;;;17.00;99.90;;;;;;5074394;28;20636;-67
2023/07/02 01:45:50;;;;;;;39.90;23.00;;;17.00;99.90;;;;;;5073990;28;20255;-66
2023/07/02 01:48:16;;;;;;;41.90;21.52;;;16.90;99.90;;;;;;5074352;28;20260;-65
2023/07/02 01:50:41;;;;;;;40.67;22.02;;;17.00;99.90;;;;;;5074510;28;20632;-66
2023/07/02 01:53:07;;;;;;;39.03;22.10;;;17.00;99.90;;;;;;5074254;28;20248;-67
2023/07/02 01:55:32;;;;;;;39.47;22.45;;;17.10;99.90;;;;;;5074036;28;20688;-66
2023/07/02 01:57:58;;;;;;;40.95;21.83;;;17.10;99.90;;;;;;5073977;28;20169;-67
2023/07/02 02:00:24;;;;;;;38.77;21.87;;;17.10;99.90;;;;;;5073906;28;20168;-67
2023/07/02 02:02:50;;;;;;;42.20;23.02;;;17.00;99.90;;;;;;5074174;28;20180;-66
2023/07/02 02:05:16;;;;;;;39.95;22.60;;;17.00;99.90;;;;;;5073922;28;20534;-66
2023/07/02 02:07:41;;;;;;;43.95;23.00;;;17.00;99.90;;;;;;5074040;28;20161;-67
2023/07/02 02:10:08;;;;;;;37.97;22.02;;;17.00;99.90;;;;;;5073734;28;20208;-66
2023/07/02 02:12:34;;;;;;;37.58;23.27;;;17.00;99.90;;;;;;5073342;28;20662;-66
2023/07/02 02:15:00;;;;;;;42.30;22.95;;;17.00;99.90;;;;;;5073395;28;20189;-66
2023/07/02 02:17:25;;;;;;;40.37;23.90;;;16.90;99.90;;;;;;5073792;28;20247;-66
2023/07/02 02:19:51;;;;;;;43.00;22.52;;;16.90;99.90;;;;;;5073483;28;20192;-66
2023/07/02 02:22:16;;;;;;;41.22;22.70;;;16.80;99.90;;;;;;5073677;28;20204;-65
2023/07/02 02:24:42;;;;;;;40.03;22.80;;;16.80;99.90;;;;;;5073536;28;20196;-67
2023/07/02 02:27:08;;;;;;;40.13;23.23;;;16.80;99.90;;;;;;5073344;28;20695;-66
2023/07/02 02:29:34;;;;;;;38.92;22.25;;;16.90;99.90;;;;;;5073133;28;20250;-66
2023/07/02 02:32:00;;;;;;;41.72;23.10;;;16.80;99.90;;;;;;5073476;28;20169;-66
2023/07/02 02:34:25;;;;;;;45.58;23.35;;;16.80;99.90;;;;;;5073392;28;20237;-66
2023/07/02 02:36:51;;;;;;;43.70;24.27;;;16.80;99.90;;;;;;5073486;28;20164;-66
2023/07/02 02:39:17;;;;;;;44.65;23.90;;;16.70;99.90;;;;;;5073273;28;20752;-66
2023/07/02 02:42:02;;;;;;;44.90;23.53;;;16.70;99.90;;;;;;5073288;28;20177;-65
2023/07/02 02:44:27;;;;;;;42.63;23.07;;;16.70;99.90;;;;;;5072990;28;20172;-66
2023/07/02 02:46:53;;;;;;;43.03;23.37;;;16.60;99.90;;;;;;5073326;28;20184;-66
2023/07/02 02:49:18;;;;;;;45.07;23.90;;;16.50;99.90;;;;;;5073227;28;20640;-65
2023/07/02 02:51:44;;;;;;;45.13;23.07;;;16.50;99.90;;;;;;5073220;28;20184;-66
2023/07/02 02:54:10;;;;;;;41.80;23.87;;;16.50;99.90;;;;;;5072795;28;20180;-67
2023/07/02 02:56:35;;;;;;;44.55;24.13;;;16.50;99.90;;;;;;5073290;28;20168;-65
2023/07/02 02:59:01;;;;;;;51.47;26.03;;;16.50;99.90;;;;;;5073054;28;20180;-66
2023/07/02 03:01:30;;;;;;;50.57;25.97;;;16.40;99.90;;;;;;5073282;28;20679;-66
2023/07/02 03:03:58;;;;;;;47.90;23.53;;;16.40;99.90;;;;;;5073228;28;20261;-65
2023/07/02 03:06:24;;;;;;;46.30;24.15;;;16.40;99.90;;;;;;5073183;28;20168;-65
2023/07/02 03:08:50;;;;;;;45.87;24.87;;;16.30;99.90;;;;;;5072848;28;20725;-65
2023/07/02 03:11:15;;;;;;;45.97;25.13;;;16.30;99.90;;;;;;5072955;28;20571;-67
2023/07/02 03:13:41;;;;;;;47.55;24.98;;;16.30;99.90;;;;;;5072696;28;20184;-66
2023/07/02 03:16:06;;;;;;;47.70;26.40;;;16.30;99.90;;;;;;5073121;28;20255;-66
2023/07/02 03:18:32;;;;;;;51.37;25.07;;;16.20;99.90;;;;;;5072750;28;20183;-66
2023/07/02 03:20:59;;;;;;;45.73;25.73;;;16.20;99.90;;;;;;5072448;28;20670;-66
2023/07/02 03:23:25;;;;;;;46.70;26.10;;;16.20;99.90;;;;;;5073913;28;20650;-65
2023/07/02 03:25:50;;;;;;;44.73;25.70;;;16.10;99.90;;;;;;5076725;28;20177;-66
2023/07/02 03:28:16;;;;;;;54.63;27.47;;;16.20;99.90;;;;;;5076812;28;20200;-65
2023/07/02 03:30:41;;;;;;;49.90;26.73;;;16.20;99.90;;;;;;5077265;28;20202;-65
2023/07/02 03:33:09;;;;;;;47.30;26.07;;;16.10;99.90;;;;;;5077026;28;20527;-66
2023/07/02 03:35:34;;;;;;;52.57;28.10;;;16.10;99.90;;;;;;5076609;28;20181;-65
2023/07/02 03:38:00;;;;;;;49.60;26.13;;;16.10;99.90;;;;;;5076360;28;20583;-66
2023/07/02 03:40:25;;;;;;;54.47;27.33;;;16.00;99.90;;;;;;5076636;28;20169;-65
2023/07/02 03:42:51;;;;;;;53.07;27.23;;;16.00;99.90;;;;;;5076648;28;20180;-66
2023/07/02 03:45:17;;;;;;;53.00;28.00;;;16.00;99.90;;;;;;5076665;28;20179;-67
2023/07/02 03:47:42;;;;;;;57.27;28.17;;;16.00;99.90;;;;;;5076266;28;20543;-65
2023/07/02 03:50:09;;;;;;;55.20;28.00;;;15.90;99.90;;;;;;5076513;28;20208;-66
2023/07/02 03:52:35;;;;;;;56.63;28.63;;;15.90;99.90;;;;;;5076368;28;20169;-66
2023/07/02 03:55:00;;;;;;;58.07;28.63;;;15.80;99.90;;;;;;5076086;28;20539;-66
2023/07/02 03:57:26;;;;;;;55.37;28.27;;;15.90;99.90;;;;;;5076253;28;20176;-66
2023/07/02 03:59:52;;;;;;;57.20;28.67;;;15.90;99.90;;;;;;5076435;28;20242;-66
2023/07/02 04:02:18;;;;;;;58.20;28.50;;;16.00;99.90;;;;;;5076401;28;20176;-67
2023/07/02 04:04:44;;;;;;;57.60;28.67;;;16.00;99.90;;;;;;5076104;28;20226;-67
2023/07/02 04:07:09;;;;;;;56.70;28.40;;;16.00;99.90;;;;;;5076040;28;20165;-66
2023/07/02 04:09:35;;;;;;;62.47;29.17;;;15.90;99.90;;;;;;5075763;28;20208;-66
2023/07/02 04:12:01;;;;;;;65.10;28.90;;;15.90;99.90;;;;;;5075679;28;20627;-67
2023/07/02 04:14:27;;;;;;;61.77;30.23;;;15.90;99.90;;;;;;5076151;28;20192;-67
2023/07/02 04:16:52;;;;;;;56.83;30.23;;;15.90;99.90;;;;;;5075909;28;20187;-66
2023/07/02 04:19:18;;;;;;;54.60;28.67;;;15.90;99.90;;;;;;5075805;28;20172;-67
2023/07/02 04:21:44;;;;;;;60.73;30.47;;;15.90;99.90;;;;;;5075586;28;20641;-67
2023/07/02 04:24:09;;;;;;;65.17;30.43;;;15.90;99.90;;;;;;5075280;28;20279;-67
2023/07/02 04:26:36;;;;;;;58.73;30.80;;;15.90;99.90;;;;;;5075672;28;20530;-66
2023/07/02 04:29:02;;;;;;;57.47;29.67;;;16.00;99.90;;;;;;5075599;28;20283;-66
2023/07/02 04:31:27;;;;;;;59.77;29.77;;;16.10;99.90;;;;;;5075703;28;20222;-67
2023/07/02 04:33:53;;;;;;;52.63;29.23;;;16.10;99.90;;;;;;5075493;28;20171;-67
2023/07/02 04:36:19;;;;;;;54.17;29.07;;;16.10;99.90;;;;;;5075567;28;20173;-67
2023/07/02 04:38:44;;;;;;;66.47;31.43;;;16.10;99.90;;;;;;5074897;28;20235;-66
2023/07/02 04:41:10;;;;;;;58.33;29.33;;;16.30;99.90;;;;;;5075558;28;20539;-67
2023/07/02 04:43:36;;;;;;;60.83;29.67;;;16.40;99.90;;;;;;5074983;28;20222;-66
2023/07/02 04:46:02;;;;;;;58.40;31.23;;;16.30;99.90;;;;;;5075418;28;20187;-66
2023/07/02 04:48:27;;;;;;;58.10;29.87;;;16.30;99.90;;;;;;5075056;28;20196;-66
2023/07/02 04:50:53;;;;;;;57.10;29.83;;;16.30;99.90;;;;;;5075179;28;20519;-66
2023/07/02 04:53:19;;;;;;;55.90;29.90;;;16.40;99.90;;;;;;5075160;28;20643;-66
2023/07/02 04:55:44;;;;;;;59.27;30.10;;;16.40;99.90;;;;;;5075176;28;20169;-66
2023/07/02 04:58:10;;;;;;;58.47;29.47;;;16.50;99.90;;;;;;5075098;28;20615;-66
2023/07/02 05:00:36;;;;;;;55.53;29.57;;;16.60;99.90;;;;;;5074930;28;20213;-65
2023/07/02 05:03:01;;;;;;;56.60;29.60;;;16.90;99.90;;;;;;5074933;28;20673;-66
2023/07/02 05:05:27;;;;;;;51.37;28.97;;;17.50;99.90;;;;;;5073889;28;20172;-67
2023/07/02 05:07:54;;;;;;;57.55;30.15;;;17.50;99.90;;;;;;5074687;28;20160;-66
2023/07/02 05:10:20;;;;;;;55.90;29.45;;;17.70;99.90;;;;;;5074765;28;20217;-66
2023/07/02 05:12:46;;;;;;;55.80;29.43;;;17.60;99.90;;;;;;5056788;28;20263;-66
2023/07/02 05:15:12;;;;;;;58.53;29.33;;;17.50;99.90;;;;;;5074838;28;20180;-66
2023/07/02 05:17:37;;;;;;;58.25;30.35;;;17.50;99.90;;;;;;5074672;28;20172;-66
2023/07/02 05:20:06;;;;;;;56.92;29.63;;;17.30;99.90;;;;;;5074674;28;20286;-65
2023/07/02 05:22:32;;;;;;;55.03;29.20;;;17.30;99.90;;;;;;5074217;28;20169;-66
2023/07/02 05:24:58;;;;;;;51.47;28.92;;;17.30;99.90;;;;;;5074737;28;20180;-66
2023/07/02 05:27:23;;;;;;;60.20;28.98;;;17.80;99.90;;;;;;5074624;28;20176;-68
2023/07/02 05:29:49;;;;;;;53.38;28.23;;;18.30;99.90;;;;;;5074363;28;20509;-67
2023/07/02 05:32:15;;;;;;;54.80;28.63;;;18.30;99.90;;;;;;5074517;28;20222;-67
2023/07/02 05:34:40;;;;;;;55.20;27.98;;;18.90;97.20;;;;;;5074437;28;20176;-67
2023/07/02 05:37:06;;;;;;;53.45;28.45;;;18.90;84.00;;;;;;5073996;28;20168;-66
2023/07/02 05:39:33;;;;;;;52.17;28.00;;;19.10;77.60;;;;;;5074136;28;20702;-67
2023/07/02 05:41:59;;;;;;;47.90;27.48;;;19.00;81.80;;;;;;5074039;28;20172;-67
2023/07/02 05:44:25;;;;;;;55.55;28.70;;;19.20;85.20;;;;;;5073717;28;20176;-67
2023/07/02 05:46:50;;;;;;;44.67;26.83;;;19.20;63.90;;;;;;5073784;28;20679;-67
2023/07/02 05:49:16;;;;;;;50.97;27.75;;;19.20;72.70;;;;;;5073599;28;20608;-67
2023/07/02 05:51:41;;;;;;;49.55;27.85;;;19.50;70.30;;;;;;5073622;28;20179;-67
2023/07/02 05:54:07;;;;;;;49.97;28.17;;;19.60;64.10;;;;;;5074309;28;20176;-67
2023/07/02 05:56:33;;;;;;;46.08;26.85;;;19.90;54.70;;;;;;5073922;28;20177;-67
2023/07/02 05:58:58;;;;;;;45.75;26.75;;;20.00;41.00;;;;;;5073904;28;20207;-67
2023/07/02 06:01:24;;;;;;;48.17;26.90;;;20.50;27.40;;;;;;5073870;28;20165;-69
2023/07/02 06:03:50;;;;;;;46.45;26.60;;;21.20;19.50;;;;;;5073718;28;20207;-67
2023/07/02 06:06:16;;;;;;;51.85;27.70;;;21.90;2.20;;;;;;5073462;28;20632;-67
2023/07/02 06:08:41;;;;;;;45.22;26.42;;;22.40;1.00;;;;;;5074307;28;20273;-67
2023/07/02 06:11:07;;;;;;;48.20;25.67;;;22.60;1.00;;;;;;5073425;28;20524;-69
2023/07/02 06:13:33;;;;;;;44.38;26.20;;;23.10;1.00;;;;;;5073747;28;20230;-68
2023/07/02 06:15:58;;;;;;;45.50;25.35;;;23.90;1.00;;;;;;5073770;28;20175;-68
2023/07/02 06:18:24;;;;;;;40.83;24.48;;;24.70;1.00;;;;;;5073486;28;20168;-68
2023/07/02 06:20:50;;;;;;;44.20;24.65;;;24.70;1.00;;;;;;5072920;28;20747;-68
2023/07/02 06:23:16;;;;;;;39.92;24.70;;;23.90;1.00;;;;;;5073493;28;20176;-67
2023/07/02 06:25:41;;;;;;;39.33;23.88;;;23.00;1.00;;;;;;5073829;28;20176;-68
2023/07/02 06:28:07;;;;;;;38.90;23.75;;;22.60;1.00;;;;;;5073533;28;20532;-66
2023/07/02 06:30:33;;;;;;;39.75;23.20;;;22.50;1.00;;;;;;5073327;28;20208;-68
2023/07/02 06:32:58;;;;;;;44.47;24.05;;;22.40;1.00;;;;;;5073090;28;20234;-67
2023/07/02 06:35:24;;;;;;;40.40;24.25;;;23.20;1.00;;;;;;5073218;28;20172;-68
2023/07/02 06:37:50;;;;;;;36.63;23.48;;;24.20;1.00;;;;;;5073214;28;20616;-69
2023/07/02 06:40:15;;;;;;;35.92;22.23;;;24.90;1.00;;;;;;5073432;28;20219;-69
2023/07/02 06:42:41;;;;;;;35.95;23.15;;;25.40;1.00;;;;;;5073483;28;20173;-68
2023/07/02 06:45:07;;;;;;;40.92;22.38;;;25.80;1.00;;;;;;5072788;28;20639;-69
2023/07/02 06:47:33;;;;;;;38.13;21.25;;;25.60;1.00;;;;;;5073065;28;20172;-68
2023/07/02 06:49:59;;;;;;;33.95;20.70;;;25.00;1.00;;;;;;5072162;28;20295;-68
2023/07/02 06:52:25;;;;;;;33.38;20.92;;;24.30;1.00;;;;;;5072786;28;20628;-69
2023/07/02 06:54:51;;;;;;;33.10;20.50;;;24.10;1.00;;;;;;5073072;28;20165;-69
2023/07/02 06:57:16;;;;;;;32.55;20.98;;;25.60;1.00;;;;;;5072557;28;20172;-69
2023/07/02 06:59:42;;;;;;;33.35;20.92;;;26.60;1.00;;;;;;5072610;28;20643;-68
2023/07/02 07:02:08;;;;;;;29.48;19.20;;;26.40;1.00;;;;;;5072918;28;20177;-68
2023/07/02 07:04:36;;;;;;;34.08;19.98;;;25.70;99.90;;;;;;5072549;28;20181;-68
2023/07/02 07:07:05;;;;;;;32.15;19.35;;;24.60;1.00;;;;;;5072893;28;20247;-68
2023/07/02 07:09:30;;;;;;;28.23;17.15;;;24.70;1.00;;;;;;5072366;28;20303;-69
2023/07/02 07:11:56;;;;;;;26.92;15.95;;;24.40;1.00;;;;;;5072658;28;20618;-67
2023/07/02 07:14:22;;;;;;;26.65;15.38;;;24.30;99.90;;;;;;5072893;28;20196;-67
2023/07/02 07:16:48;;;;;;;23.55;13.93;;;23.70;1.00;;;;;;5072695;28;20215;-67
2023/07/02 07:19:14;;;;;;;27.17;15.40;;;23.30;1.00;;;;;;5072406;28;20249;-67
2023/07/02 07:21:40;;;;;;;23.48;15.60;;;23.00;1.00;;;;;;5072584;28;20624;-68
2023/07/02 07:24:06;;;;;;;26.30;15.35;;;23.10;1.00;;;;;;5072410;28;20217;-67
2023/07/02 07:26:31;;;;;;;23.30;14.93;;;23.30;1.00;;;;;;5072682;28;20206;-67
2023/07/02 07:28:57;;;;;;;24.85;14.82;;;22.90;1.00;;;;;;5072548;28;20593;-67
2023/07/02 07:31:24;;;;;;;24.58;14.13;;;22.30;1.00;;;;;;5072505;28;20172;-67
2023/07/02 07:33:50;;;;;;;22.95;13.52;;;22.40;1.00;;;;;;5072117;28;20639;-67
2023/07/02 07:36:15;;;;;;;26.65;13.73;;;22.60;1.00;;;;;;5072556;28;20184;-66
2023/07/02 07:38:43;;;;;;;21.35;12.45;;;22.60;1.00;;;;;;5072111;28;20227;-69
2023/07/02 07:41:09;;;;;;;24.10;13.57;;;22.30;1.00;;;;;;5072386;28;20180;-68
2023/07/02 07:43:34;;;;;;;24.15;13.25;;;22.70;1.00;;;;;;5072299;28;20628;-67
2023/07/02 07:46:00;;;;;;;18.80;12.05;;;22.70;1.00;;;;;;5072266;28;20632;-66
2023/07/02 07:48:26;;;;;;;21.83;12.32;;;23.20;1.00;;;;;;5072289;28;20172;-67
2023/07/02 07:50:52;;;;;;;19.35;11.38;;;23.60;99.90;;;;;;5071936;28;20212;-67
2023/07/02 07:53:17;;;;;;;20.60;11.18;;;23.50;99.90;;;;;;5072319;28;20169;-67
2023/07/02 07:55:43;;;;;;;16.52;11.25;;;23.80;1.00;;;;;;5072417;28;20226;-67
2023/07/02 07:58:09;;;;;;;20.77;11.52;;;24.00;99.90;;;;;;5072215;28;20208;-68
2023/07/02 08:00:34;;;;;;;16.88;11.27;;;24.50;17.20;;;;;;5072148;28;20180;-69
2023/07/02 08:03:01;;;;;;;26.40;12.23;;;24.90;1.00;;;;;;5071379;28;20177;-68
2023/07/02 08:05:26;;;;;;;21.65;11.80;;;25.00;1.00;;;;;;5072498;28;20173;-68
2023/07/02 08:07:53;;;;;;;19.15;10.77;;;25.00;99.90;;;;;;5072411;28;20586;-68
2023/07/02 08:10:19;;;;;;;20.02;10.88;;;25.20;7.10;;;;;;5074877;28;20219;-68
2023/07/02 08:12:47;;;;;;;20.05;11.88;;;25.20;1.00;;;;;;5075735;28;20177;-68
2023/07/02 08:15:12;;;;;;;19.50;11.00;;;25.10;99.90;;;;;;5075785;28;20230;-67
2023/07/02 08:17:38;;;;;;;17.73;11.38;;;24.90;99.90;;;;;;5074910;28;20706;-69
2023/07/02 08:20:04;;;;;;;17.25;11.52;;;25.20;1.00;;;;;;5075733;28;20196;-68
2023/07/02 08:22:30;;;;;;;16.75;11.38;;;25.40;1.00;;;;;;5075506;28;20169;-68
2023/07/02 08:24:56;;;;;;;19.17;12.05;;;25.10;1.00;;;;;;5075144;28;20169;-68
2023/07/02 08:27:23;;;;;;;19.52;11.95;;;24.80;1.00;;;;;;5075613;28;20215;-68
2023/07/02 08:29:48;;;;;;;17.98;11.98;;;25.80;1.00;;;;;;5075483;28;20216;-70
2023/07/02 08:32:15;;;;;;;18.23;11.85;;;27.10;99.90;;;;;;5075360;28;20164;-68
2023/07/02 08:34:41;;;;;;;17.17;12.02;;;28.00;1.00;;;;;;5075670;28;20259;-68
2023/07/02 08:37:06;;;;;;;19.65;11.93;;;27.10;99.90;;;;;;5075048;28;20188;-69
2023/07/02 08:39:32;;;;;;;20.40;12.15;;;26.50;99.90;;;;;;5074823;28;20224;-68
2023/07/02 08:41:58;;;;;;;22.05;12.75;;;25.50;99.90;;;;;;5075112;28;20582;-67
2023/07/02 08:44:24;;;;;;;21.23;13.23;;;25.00;99.90;;;;;;5074911;28;20685;-68
2023/07/02 08:46:50;;;;;;;20.88;13.20;;;25.00;99.90;;;;;;5074716;28;20172;-68
2023/07/02 08:49:17;;;;;;;22.33;13.82;;;24.70;24.60;;;;;;5075253;28;20655;-68
2023/07/02 08:51:45;;;;;;;21.23;13.20;;;24.30;99.90;;;;;;5075050;28;20252;-67
2023/07/02 08:54:11;;;;;;;23.15;12.75;;;23.80;99.90;;;;;;5075053;28;20204;-68
2023/07/02 08:56:37;;;;;;;21.98;13.15;;;23.00;1.00;;;;;;5074888;28;20650;-67
2023/07/02 08:59:03;;;;;;;18.98;12.75;;;22.60;1.00;;;;;;5074227;28;20506;-67
2023/07/02 09:01:29;;;;;;;24.52;13.52;;;22.80;1.00;;;;;;5074647;28;20255;-67
2023/07/02 09:04:02;;;;;;;19.25;12.70;;;23.00;1.00;;;;;;5075060;28;20168;-67
2023/07/02 09:06:27;;;;;;;22.58;13.60;;;23.00;1.00;;;;;;5074990;28;20176;-67
2023/07/02 09:09:02;;;;;;;21.17;12.75;;;22.60;1.00;;;;;;5074965;28;20216;-66
2023/07/02 09:11:28;;;;;;;24.38;14.15;;;22.50;1.00;;;;;;5074084;28;20168;-67
2023/07/02 09:13:58;;;;;;;22.77;12.73;;;22.10;1.00;;;;;;5074379;28;20526;-67
2023/07/02 09:16:39;;;;;;;22.30;12.93;;;21.90;1.00;;;;;;5074847;28;20169;-66
2023/07/02 09:19:09;;;;;;;21.98;12.48;;;22.10;1.00;;;;;;5074279;28;20258;-66
2023/07/02 09:21:40;;;;;;;24.67;13.10;;;21.80;1.00;;;;;;5073263;28;20226;-67
2023/07/02 09:24:22;;;;;;;19.85;12.50;;;21.90;1.00;;;;;;5074731;28;20180;-66
2023/07/02 09:26:50;;;;;;;25.98;13.23;;;22.00;1.00;;;;;;5074495;28;20207;-67
2023/07/02 09:29:30;;;;;;;21.55;13.00;;;21.90;1.00;;;;;;5073983;28;20201;-68
2023/07/02 09:32:00;;;;;;;22.65;12.50;;;22.00;1.00;;;;;;5074607;28;20183;-68
2023/07/02 09:34:30;;;;;;;22.88;12.70;;;22.30;1.00;;;;;;5074038;28;20195;-68
2023/07/02 09:37:00;;;;;;;23.23;13.05;;;22.60;99.90;;;;;;5074572;28;20248;-68
2023/07/02 09:39:31;;;;;;;21.13;12.90;;;23.10;99.90;;;;;;5074239;28;20224;-67
2023/07/02 09:41:59;;;;;;;20.85;11.70;;;23.60;99.90;;;;;;5073932;28;20168;-68
2023/07/02 09:44:29;;;;;;;22.02;12.70;;;23.50;1.00;;;;;;5073970;28;20187;-67
2023/07/02 09:47:03;;;;;;;20.75;12.45;;;23.40;99.90;;;;;;5074041;28;20172;-67
2023/07/02 09:49:32;;;;;;;20.58;13.15;;;22.50;99.90;;;;;;5073916;28;20208;-67
2023/07/02 09:52:00;;;;;;;20.30;12.65;;;21.90;1.00;;;;;;5073594;28;20183;-68
2023/07/02 09:54:27;;;;;;;21.48;12.02;;;21.20;1.00;;;;;;5073577;28;20593;-65
2023/07/02 09:56:53;;;;;;;25.17;12.40;;;21.10;1.00;;;;;;5073618;28;20180;-67
2023/07/02 09:59:19;;;;;;;20.90;12.32;;;21.20;1.00;;;;;;5054860;28;20180;-68
2023/07/02 10:01:44;;;;;;;22.92;12.13;;;21.00;1.00;;;;;;5073263;28;20169;-67
2023/07/02 10:04:12;;;;;;;21.90;12.13;;;21.10;1.00;;;;;;5073648;28;20652;-68
2023/07/02 10:06:48;;;;;;;18.02;11.70;;;21.50;1.00;;;;;;5073383;28;20171;-68
2023/07/02 10:09:15;;;;;;;20.02;11.70;;;22.10;15.20;;;;;;5073272;28;20199;-68
2023/07/02 10:11:41;;;;;;;25.33;11.75;;;22.40;1.00;;;;;;5073917;28;20177;-69
2023/07/02 10:14:07;;;;;;;21.15;12.63;;;23.30;1.00;;;;;;5073236;28;20177;-67
2023/07/02 10:16:32;;;;;;;19.13;11.13;;;23.90;18.50;;;;;;5072781;28;20176;-68
2023/07/02 10:19:13;;;;;;;21.23;12.10;;;24.20;1.00;;;;;;5073266;28;20173;-69
2023/07/02 10:21:39;;;;;;;17.70;11.70;;;24.50;1.00;;;;;;5073102;28;20701;-68
2023/07/02 10:24:12;;;;;;;18.63;11.15;;;24.50;83.30;;;;;;5073470;28;20176;-68
2023/07/02 10:26:38;;;;;;;17.95;11.15;;;23.90;1.00;;;;;;5072742;28;20175;-69
2023/07/02 10:29:04;;;;;;;19.60;11.80;;;23.40;99.90;;;;;;5072830;28;20199;-70
2023/07/02 10:31:29;;;;;;;17.50;10.60;;;23.10;99.90;;;;;;5072931;28;20161;-69
2023/07/02 10:33:55;;;;;;;18.98;11.15;;;22.90;99.90;;;;;;5073006;28;20180;-69
2023/07/02 10:36:23;;;;;;;18.17;10.82;;;22.50;1.00;;;;;;5072853;28;20161;-69
2023/07/02 10:38:49;;;;;;;19.83;11.35;;;22.30;1.00;;;;;;5072780;28;20220;-68
2023/07/02 10:41:26;;;;;;;17.95;11.52;;;22.40;56.60;;;;;;5072919;28;20635;-69
2023/07/02 10:43:52;;;;;;;24.13;11.80;;;22.50;1.00;;;;;;5072818;28;20172;-68
2023/07/02 10:46:19;;;;;;;22.50;11.52;;;22.40;1.00;;;;;;5072948;28;20169;-68
2023/07/02 10:48:55;;;;;;;22.15;11.40;;;22.00;99.90;;;;;;5073301;28;20214;-68
2023/07/02 10:51:22;;;;;;;22.52;11.85;;;22.00;1.00;;;;;;5072003;28;20250;-68
2023/07/02 10:54:00;;;;;;;17.45;11.48;;;22.40;99.90;;;;;;5072955;28;20169;-66
2023/07/02 10:56:29;;;;;;;24.15;11.30;;;22.70;17.90;;;;;;5072667;28;20184;-68
2023/07/02 10:58:55;;;;;;;16.52;11.95;;;23.00;99.90;;;;;;5072211;28;20169;-67
2023/07/02 11:01:28;;;;;;;19.95;11.80;;;23.40;99.90;;;;;;5072723;28;20177;-68
2023/07/02 11:04:02;;;;;;;19.67;11.73;;;23.60;1.00;;;;;;5072581;28;20172;-68
2023/07/02 11:06:28;;;;;;;15.98;10.32;;;23.60;99.90;;;;;;5072428;28;20297;-68
2023/07/02 11:08:57;;;;;;;21.58;10.73;;;23.30;1.00;;;;;;5072267;28;20322;-68
2023/07/02 11:11:23;;;;;;;16.88;10.20;;;22.80;1.00;;;;;;5072203;28;20271;-67
2023/07/02 11:13:50;;;;;;;22.88;11.18;;;22.70;1.00;;;;;;5072408;28;20177;-69
2023/07/02 11:16:25;;;;;;;18.17;10.85;;;23.00;99.90;;;;;;5072665;28;20173;-66
2023/07/02 11:19:07;;;;;;;18.85;10.70;;;22.60;99.90;;;;;;5072055;28;20164;-68
2023/07/02 11:21:33;;;;;;;17.15;10.30;;;22.40;1.00;;;;;;5072694;28;20172;-68
2023/07/02 11:24:08;;;;;;;17.63;10.45;;;22.40;1.00;;;;;;5072491;28;20526;-67
2023/07/02 11:26:40;;;;;;;21.40;10.77;;;22.20;99.90;;;;;;5071653;28;20160;-67
2023/07/02 11:29:17;;;;;;;19.55;10.55;;;22.60;19.00;;;;;;5072830;28;20211;-67
2023/07/02 11:31:43;;;;;;;18.17;10.23;;;22.90;99.90;;;;;;5072294;28;20522;-69
2023/07/02 11:34:22;;;;;;;16.00;10.88;;;23.60;1.00;;;;;;5072658;28;20161;-68
2023/07/02 11:36:48;;;;;;;17.02;10.82;;;23.90;99.90;;;;;;5072119;28;20318;-70
2023/07/02 11:39:17;;;;;;;15.93;9.98;;;24.40;4.40;;;;;;5071712;28;20255;-70
2023/07/02 11:41:44;;;;;;;16.30;10.30;;;24.40;99.90;;;;;;5072588;28;20264;-68
2023/07/02 11:44:10;;;;;;;17.45;9.80;;;24.70;99.90;;;;;;5072668;28;20196;-69
2023/07/02 11:46:36;;;;;;;16.92;9.88;;;24.60;1.00;;;;;;5075967;28;20607;-69
2023/07/02 11:49:08;;;;;;;15.57;9.98;;;23.80;99.90;;;;;;5075534;28;20204;-68
2023/07/02 11:51:37;;;;;;;15.48;9.77;;;23.30;1.00;;;;;;5076083;28;20164;-67
2023/07/02 11:54:04;;;;;;;21.35;10.55;;;22.90;99.90;;;;;;5075912;28;20218;-67
2023/07/02 11:56:30;;;;;;;18.98;10.40;;;22.50;1.00;;;;;;5076072;28;20169;-67
2023/07/02 11:58:55;;;;;;;17.55;9.73;;;22.50;1.00;;;;;;5076093;28;20591;-67
2023/07/02 12:01:21;;;;;;;18.50;10.02;;;22.70;1.00;;;;;;5076055;28;20180;-71
2023/07/02 12:03:47;;;;;;;16.98;10.55;;;23.70;19.80;;;;;;5075367;28;20169;-71
2023/07/02 12:06:13;;;;;;;16.33;10.48;;;24.50;1.00;;;;;;5075412;28;20160;-71
2023/07/02 12:08:38;;;;;;;16.02;10.23;;;25.10;1.00;;;;;;5075528;28;20234;-70
2023/07/02 12:11:04;;;;;;;16.38;10.40;;;25.70;99.90;;;;;;5075542;28;20592;-71
2023/07/02 12:13:29;;;;;;;19.33;10.73;;;25.10;1.00;;;;;;5075863;28;20176;-70
2023/07/02 12:15:55;;;;;;;14.15;10.15;;;25.30;1.00;;;;;;5075765;28;20177;-70
2023/07/02 12:18:21;;;;;;;17.38;10.35;;;25.20;1.00;;;;;;5075425;28;20212;-69
2023/07/02 12:20:46;;;;;;;20.77;11.00;;;25.10;1.00;;;;;;5075151;28;20184;-69
2023/07/02 12:23:12;;;;;;;19.13;10.57;;;24.90;99.90;;;;;;5075083;28;20247;-70
2023/07/02 12:25:38;;;;;;;17.33;10.70;;;24.60;99.90;;;;;;5075182;28;20265;-69
2023/07/02 12:28:04;;;;;;;17.10;10.20;;;24.60;1.00;;;;;;5075742;28;20168;-70
2023/07/02 12:30:30;;;;;;;18.70;10.80;;;24.90;1.00;;;;;;5075601;28;20208;-68